| time (UTC) | temp F | wind direction | speed knots | gust knots | rain 1hr in | rain 24hr in | rain mn in | humidity % | barometer mb |
| 20260505214006 | 78 | 135 | 0.9 | 2.6 | 0.00 | 0.00 | 0.00 | 49 | 1013.6 |
| 20260505213006 | 78 | 180 | 0.9 | 2.6 | 0.00 | 0.00 | 0.00 | 48 | 1013.7 |
| 20260505212006 | 79 | 180 | 0.9 | 2.6 | 0.00 | 0.00 | 0.00 | 47 | 1013.6 |
| 20260505211006 | 79 | 180 | 0.9 | 2.6 | 0.00 | 0.00 | 0.00 | 47 | 1013.7 |
| 20260505210006 | 80 | 180 | 1.7 | 2.6 | 0.00 | 0.00 | 0.00 | 47 | 1013.7 |
| 20260505205006 | 80 | 180 | 0.9 | 2.6 | 0.00 | 0.00 | 0.00 | 46 | 1013.6 |
| 20260505204007 | 81 | 180 | 0.9 | 2.6 | 0.00 | 0.00 | 0.00 | 45 | 1013.6 |
| 20260505203006 | 82 | 222 | 1.7 | 2.6 | 0.00 | 0.00 | 0.00 | 44 | 1013.8 |
| 20260505202007 | 82 | 180 | 0.9 | 4.3 | 0.00 | 0.00 | 0.00 | 43 | 1013.7 |
| 20260505200006 | 83 | 138 | 0.9 | 2.6 | 0.00 | 0.00 | 0.00 | 43 | 1013.8 |
| 20260505195006 | 85 | 180 | 0.9 | 2.6 | 0.00 | 0.00 | 0.00 | 41 | 1014.0 |
| 20260505194007 | 85 | 225 | 0.9 | 4.3 | 0.00 | 0.00 | 0.00 | 41 | 1014.1 |
| 20260505193007 | 86 | 180 | 0.9 | 2.6 | 0.00 | 0.00 | 0.00 | 40 | 1014.0 |
| 20260505192006 | 86 | 180 | 0.9 | 2.6 | 0.00 | 0.00 | 0.00 | 41 | 1014.2 |
| 20260505191007 | 85 | 181 | 0.9 | 2.6 | 0.00 | 0.00 | 0.00 | 41 | 1014.5 |
| 20260505190006 | 85 | 180 | 0.9 | 2.6 | 0.00 | 0.00 | 0.00 | 41 | 1014.6 |
| 20260505185006 | 86 | 235 | 0.9 | 2.6 | 0.00 | 0.00 | 0.00 | 39 | 1014.8 |
| 20260505184006 | 86 | 135 | 0.9 | 5.2 | 0.00 | 0.00 | 0.00 | 41 | 1014.8 |
| 20260505183006 | 86 | 180 | 0.9 | 4.3 | 0.00 | 0.00 | 0.00 | 39 | 1014.5 |
| 20260505182006 | 85 | 180 | 0.9 | 2.6 | 0.00 | 0.00 | 0.00 | 41 | 1014.6 |
| 20260505181006 | 85 | 92 | 1.7 | 2.6 | 0.00 | 0.00 | 0.00 | 39 | 1014.6 |
| 20260505180006 | 85 | 220 | 0.9 | 5.2 | 0.00 | 0.00 | 0.00 | 40 | 1014.6 |
| 20260505175006 | 85 | 94 | 0.9 | 2.6 | 0.00 | 0.00 | 0.00 | 41 | 1014.6 |
| 20260505173006 | 81 | 180 | 0.9 | 2.6 | 0.00 | 0.00 | 0.00 | 49 | 1015.1 |
| 20260505172006 | 79 | 180 | 0.9 | 2.6 | 0.00 | 0.00 | 0.00 | 49 | 1015.2 |
| 20260505171006 | 79 | 138 | 0.0 | 2.6 | 0.00 | 0.00 | 0.00 | 49 | 1015.2 |
| 20260505170006 | 78 | 138 | 0.9 | 1.7 | 0.00 | 0.00 | 0.00 | 51 | 1015.4 |
| 20260505164006 | 77 | 137 | 0.9 | 7.0 | 0.00 | 0.00 | 0.00 | 52 | 1015.5 |
| 20260505162006 | 77 | 90 | 0.9 | 2.6 | 0.00 | 0.00 | 0.00 | 51 | 1015.6 |
| 20260505161006 | 76 | 174 | 0.9 | 4.3 | 0.00 | 0.00 | 0.00 | 55 | 1015.9 |
| 20260505153007 | 76 | 173 | 1.7 | 5.2 | 0.00 | 0.00 | 0.00 | 53 | 1016.0 |
| 20260505152005 | 76 | 138 | 0.9 | 4.3 | 0.00 | 0.00 | 0.00 | 55 | 1016.0 |
| 20260505151006 | 75 | 93 | 0.9 | 2.6 | 0.00 | 0.00 | 0.00 | 57 | 1016.0 |
| 20260505125006 | 65 | 272 | 0.9 | 2.6 | 0.00 | 0.00 | 0.00 | 83 | 1015.9 |
| 20260505124005 | 64 | 270 | 0.0 | 0.0 | 0.00 | 0.00 | 0.00 | 89 | 1015.8 |
| 20260505122005 | 60 | 315 | 0.0 | 0.0 | 0.00 | 0.00 | 0.00 | 93 | 1015.8 |
| 20260505121005 | 58 | 315 | 0.0 | 0.0 | 0.00 | 0.00 | 0.00 | 94 | 1015.7 |
| 20260505120006 | 55 | 315 | 0.0 | 0.0 | 0.00 | 0.00 | 0.00 | 95 | 1015.7 |
| 20260505115005 | 53 | 315 | 0.0 | 0.0 | 0.00 | 0.00 | 0.00 | 96 | 1015.6 |
| 20260505114006 | 52 | 315 | 0.0 | 0.0 | 0.00 | 0.00 | 0.00 | 95 | 1015.5 |
| 20260505113005 | 51 | 315 | 0.0 | 0.0 | 0.00 | 0.00 | 0.00 | 95 | 1015.3 |
| 20260505112005 | 51 | 315 | 0.0 | 0.0 | 0.00 | 0.00 | 0.00 | 95 | 1015.3 |
| 20260505111005 | 51 | 315 | 0.0 | 0.0 | 0.00 | 0.00 | 0.00 | 95 | 1015.2 |
| 20260505102006 | 49 | 315 | 0.0 | 0.0 | 0.00 | 0.00 | 0.00 | 95 | 1014.6 |
| 20260505095005 | 50 | 315 | 0.0 | 0.0 | 0.00 | 0.00 | 0.00 | 95 | 1014.4 |
| 20260505094006 | 50 | 315 | 0.0 | 0.0 | 0.00 | 0.00 | 0.00 | 95 | 1014.5 |
| 20260505093005 | 50 | 315 | 0.0 | 0.0 | 0.00 | 0.00 | 0.00 | 95 | 1014.3 |
| 20260505092005 | 50 | 315 | 0.0 | 0.0 | 0.00 | 0.00 | 0.00 | 95 | 1014.3 |
| 20260505090005 | 50 | 45 | 0.0 | 0.0 | 0.00 | 0.00 | 0.00 | 95 | 1014.1 |
| 20260505085005 | 51 | 45 | 0.0 | 0.0 | 0.00 | 0.00 | 0.00 | 95 | 1014.0 |
| 20260505084005 | 51 | 315 | 0.0 | 0.0 | 0.00 | 0.00 | 0.00 | 94 | 1014.0 |
| 20260505083005 | 51 | 315 | 0.0 | 0.0 | 0.00 | 0.00 | 0.00 | 94 | 1013.9 |
| 20260505082005 | 51 | 45 | 0.0 | 0.0 | 0.00 | 0.00 | 0.00 | 94 | 1014.0 |
| 20260505081005 | 51 | 45 | 0.0 | 0.0 | 0.00 | 0.00 | 0.00 | 94 | 1013.9 |
| 20260505080005 | 51 | 45 | 0.0 | 0.0 | 0.00 | 0.00 | 0.00 | 94 | 1013.9 |
| 20260505075005 | 51 | 45 | 0.0 | 0.0 | 0.00 | 0.00 | 0.00 | 94 | 1013.9 |
| 20260505073005 | 51 | 45 | 0.0 | 0.0 | 0.00 | 0.00 | 0.00 | 93 | 1013.9 |
| 20260505072006 | 52 | 45 | 0.0 | 0.0 | 0.00 | 0.00 | 0.00 | 93 | 1013.8 |
| 20260505071005 | 52 | 45 | 0.0 | 0.0 | 0.00 | 0.00 | 0.00 | 92 | 1013.8 |
| 20260505070005 | 52 | 45 | 0.0 | 0.0 | 0.00 | 0.00 | 0.00 | 92 | 1013.8 |
| 20260505065006 | 53 | 45 | 0.0 | 0.0 | 0.00 | 0.00 | 0.00 | 92 | 1014.0 |
| 20260505063005 | 53 | 45 | 0.0 | 0.9 | 0.00 | 0.00 | 0.00 | 91 | 1014.0 |
| 20260505062006 | 53 | 45 | 0.0 | 0.0 | 0.00 | 0.00 | 0.00 | 91 | 1014.2 |
| 20260505055005 | 54 | 45 | 0.0 | 0.0 | 0.00 | 0.00 | 0.00 | 89 | 1014.3 |
| 20260505054005 | 54 | 45 | 0.0 | 0.0 | 0.00 | 0.00 | 0.00 | 88 | 1014.5 |
| 20260505052006 | 55 | 45 | 0.0 | 0.9 | 0.00 | 0.00 | 0.00 | 88 | 1014.7 |
| 20260505051007 | 55 | 45 | 0.0 | 0.0 | 0.00 | 0.00 | 0.00 | 87 | 1014.9 |
| 20260505041005 | 56 | 45 | 0.0 | 0.9 | 0.00 | 0.00 | 0.00 | 81 | 1014.7 |
| 20260505040005 | 57 | 45 | 0.0 | 0.9 | 0.00 | 0.00 | 0.00 | 82 | 1014.7 |
| 20260505035005 | 57 | 45 | 0.0 | 0.0 | 0.00 | 0.00 | 0.00 | 80 | 1014.8 |
| 20260505034005 | 57 | 45 | 0.0 | 0.9 | 0.00 | 0.00 | 0.00 | 80 | 1014.8 |
| 20260505033005 | 58 | 45 | 0.9 | 50.4 | 0.00 | 0.00 | 0.00 | 79 | 1014.7 |
| 20260505032006 | 59 | 90 | 50.4 | 50.4 | 0.00 | 0.00 | 0.00 | 74 | 1014.8 |
| 20260505030006 | 59 | 90 | 32.2 | 50.4 | 0.00 | 0.00 | 0.00 | 74 | 1014.8 |
| 20260505024006 | 60 | 90 | 0.0 | 0.9 | 0.00 | 0.00 | 0.00 | 72 | 1014.8 |
| 20260505023006 | 61 | 90 | 0.0 | 0.9 | 0.00 | 0.00 | 0.00 | 71 | 1014.8 |
| 20260505022006 | 61 | 90 | 0.0 | 0.9 | 0.00 | 0.00 | 0.00 | 71 | 1014.9 |
| 20260505021005 | 62 | 90 | 0.9 | 0.9 | 0.00 | 0.00 | 0.00 | 70 | 1014.8 |
| 20260505020005 | 62 | 90 | 0.0 | 0.0 | 0.00 | 0.00 | 0.00 | 69 | 1014.7 |
| 20260505015005 | 62 | 90 | 0.0 | 0.9 | 0.00 | 0.00 | 0.00 | 68 | 1014.6 |
| 20260505014005 | 62 | 90 | 0.0 | 0.9 | 0.00 | 0.00 | 0.00 | 68 | 1014.6 |
| 20260505013006 | 63 | 90 | 0.0 | 0.0 | 0.00 | 0.00 | 0.00 | 67 | 1014.6 |
| 20260505011005 | 64 | 90 | 0.0 | 0.9 | 0.00 | 0.00 | 0.00 | 64 | 1014.4 |
| 20260505010005 | 65 | 90 | 0.0 | 0.9 | 0.00 | 0.00 | 0.00 | 63 | 1014.3 |
| 20260505005005 | 65 | 180 | 0.0 | 50.4 | 0.00 | 0.00 | 0.00 | 62 | 1014.2 |
| 20260505004005 | 67 | 180 | 18.2 | 50.4 | 0.00 | 0.00 | 0.00 | 59 | 1014.2 |
| 20260505003005 | 67 | 180 | 0.0 | 0.9 | 0.00 | 0.00 | 0.00 | 59 | 1014.0 |
| 20260505002005 | 67 | 228 | 0.0 | 0.9 | 0.00 | 0.00 | 0.00 | 58 | 1014.0 |
| 20260505000005 | 69 | 180 | 0.9 | 1.7 | 0.00 | 0.00 | 0.00 | 55 | 1013.8 |
| 20260504235005 | 69 | 137 | 0.0 | 1.7 | 0.00 | 0.00 | 0.00 | 55 | 1013.8 |
| 20260504234006 | 71 | 180 | 0.9 | 0.9 | 0.00 | 0.00 | 0.00 | 52 | 1013.6 |
| 20260504233006 | 73 | 180 | 0.0 | 1.7 | 0.00 | 0.00 | 0.00 | 50 | 1013.6 |
| 20260504231005 | 74 | 222 | 0.9 | 2.6 | 0.00 | 0.00 | 0.00 | 48 | 1013.3 |
| 20260504230005 | 74 | 180 | 0.9 | 2.6 | 0.00 | 0.00 | 0.00 | 46 | 1013.3 |
| 20260504225005 | 75 | 180 | 0.9 | 2.6 | 0.00 | 0.00 | 0.00 | 45 | 1013.4 |
| 20260504224006 | 75 | 180 | 0.9 | 2.6 | 0.00 | 0.00 | 0.00 | 43 | 1013.3 |
| 20260504223005 | 75 | 185 | 0.9 | 2.6 | 0.00 | 0.00 | 0.00 | 43 | 1013.3 |
| 20260504222006 | 75 | 180 | 0.9 | 2.6 | 0.00 | 0.00 | 0.00 | 43 | 1013.3 |
| 20260504221005 | 74 | 180 | 0.9 | 2.6 | 0.00 | 0.00 | 0.00 | 41 | 1013.2 |
| 20260504220005 | 75 | 180 | 0.9 | 2.6 | 0.00 | 0.00 | 0.00 | 40 | 1013.3 |
| 20260504215006 | 74 | 137 | 0.9 | 4.3 | 0.00 | 0.00 | 0.00 | 41 | 1013.2 |